Pagrindinis puslapis
METAR-TAF:

METAR-TAF

Oro uostai :

Hatjajus, Tailandas

platuma: 06-55N, ilguma: 100-26E, Aukštis: 27 m

Dabartinis oras

Ataskaita buvo paskelbta 34 minutes, ne 05:00 UTC
Vėjas 2 kt iš Šiaurės Rytų
Temperatūra 29°C
Drėgmė 74%
Slėgis 1010 hPa
Matomumas 10 km arba daugiau
Mažai debesys ne aukštis 2000 ft
Su prošvaistėmis ne aukštis 10000 ft

METAR: VTSS 140500Z 05002KT 9999 FEW020 BKN100 29/24 Q1010 NOSIG

Laikas: 12:34 (05:34 UTC)

Prognozė

Ataskaita buvo paskelbta 6 valandos ir 34 minutes, ne 23:00 UTC
Prognozė galioja nuo 14 metu 00 UTC su 14 metu 24 UTC
Vėjas 8 kt iš Rytų
Matomumas 10 km arba daugiau
Mažai debesys ne aukštis 2000 ft
Su prošvaistėmis ne aukštis 10000 ft

TAF: VTSS 132300Z 1400/1424 08008KT 9999 FEW020 BKN100

Orai ataskaitas ir orų prognozės (METAR, TAF).

turimą stotys yra geltonos ir raudonos taškus žemėlapyje.

Perkelti pele per norėdami pamatyti stoties vardą.

Tada spustelėkite, norėdami matyti oro stebėjimo ir prognozės.

Norėdami pakeisti žemėlapį: spustelėkite ant žalios mygtukų su juodo kryžiaus žemyn,; žalią mygtuką su brūkšneliu, jei norite nutolinti; arba žalių rodyklių gretimoms žemėlapius.


METAR-TAF: